sensor_id;sensor_type;location;lat;lon;timestamp;P1;durP1;ratioP1;P2;durP2;ratioP2
32038;SDS011;18549;42.286;22.688;2023-05-23T00:00:56;3.15;;;2.30;;
32038;SDS011;18549;42.286;22.688;2023-05-23T00:03:23;7.22;;;2.67;;
32038;SDS011;18549;42.286;22.688;2023-05-23T00:05:50;5.10;;;2.37;;
32038;SDS011;18549;42.286;22.688;2023-05-23T00:08:17;4.00;;;2.80;;
32038;SDS011;18549;42.286;22.688;2023-05-23T00:10:45;5.20;;;2.35;;
32038;SDS011;18549;42.286;22.688;2023-05-23T00:13:12;5.80;;;2.17;;
32038;SDS011;18549;42.286;22.688;2023-05-23T00:15:38;7.07;;;2.47;;
32038;SDS011;18549;42.286;22.688;2023-05-23T00:18:06;5.18;;;2.65;;
32038;SDS011;18549;42.286;22.688;2023-05-23T00:20:35;7.53;;;2.87;;
32038;SDS011;18549;42.286;22.688;2023-05-23T00:23:04;8.38;;;2.90;;
32038;SDS011;18549;42.286;22.688;2023-05-23T00:25:32;6.55;;;2.97;;
32038;SDS011;18549;42.286;22.688;2023-05-23T00:28:01;4.00;;;2.75;;
32038;SDS011;18549;42.286;22.688;2023-05-23T00:30:29;5.65;;;2.85;;
32038;SDS011;18549;42.286;22.688;2023-05-23T00:32:56;6.45;;;2.70;;
32038;SDS011;18549;42.286;22.688;2023-05-23T00:35:24;2.95;;;2.12;;
32038;SDS011;18549;42.286;22.688;2023-05-23T00:37:51;27.48;;;3.03;;
32038;SDS011;18549;42.286;22.688;2023-05-23T00:40:19;3.83;;;2.75;;
32038;SDS011;18549;42.286;22.688;2023-05-23T00:42:46;7.60;;;3.25;;
32038;SDS011;18549;42.286;22.688;2023-05-23T00:45:15;6.00;;;2.83;;
32038;SDS011;18549;42.286;22.688;2023-05-23T00:47:43;5.78;;;2.60;;
32038;SDS011;18549;42.286;22.688;2023-05-23T00:50:11;4.95;;;2.70;;
32038;SDS011;18549;42.286;22.688;2023-05-23T00:52:39;3.83;;;2.75;;
32038;SDS011;18549;42.286;22.688;2023-05-23T00:55:07;3.22;;;2.58;;
32038;SDS011;18549;42.286;22.688;2023-05-23T00:57:34;5.15;;;2.55;;
32038;SDS011;18549;42.286;22.688;2023-05-23T01:00:05;3.00;;;2.58;;
32038;SDS011;18549;42.286;22.688;2023-05-23T01:02:36;7.78;;;3.08;;
32038;SDS011;18549;42.286;22.688;2023-05-23T01:05:08;4.80;;;3.45;;
32038;SDS011;18549;42.286;22.688;2023-05-23T01:07:38;10.10;;;2.83;;
32038;SDS011;18549;42.286;22.688;2023-05-23T01:10:06;4.65;;;3.17;;
32038;SDS011;18549;42.286;22.688;2023-05-23T01:12:37;4.10;;;2.85;;
32038;SDS011;18549;42.286;22.688;2023-05-23T01:15:12;3.67;;;2.40;;
32038;SDS011;18549;42.286;22.688;2023-05-23T01:17:44;4.12;;;2.53;;
32038;SDS011;18549;42.286;22.688;2023-05-23T01:20:18;3.15;;;2.45;;
32038;SDS011;18549;42.286;22.688;2023-05-23T01:22:58;7.07;;;2.80;;
32038;SDS011;18549;42.286;22.688;2023-05-23T01:25:38;5.47;;;3.58;;
32038;SDS011;18549;42.286;22.688;2023-05-23T01:28:25;5.75;;;3.05;;
32038;SDS011;18549;42.286;22.688;2023-05-23T01:30:56;5.65;;;3.35;;
32038;SDS011;18549;42.286;22.688;2023-05-23T01:33:26;8.77;;;5.37;;
32038;SDS011;18549;42.286;22.688;2023-05-23T01:35:55;16.33;;;10.88;;
32038;SDS011;18549;42.286;22.688;2023-05-23T01:38:23;25.40;;;16.37;;
32038;SDS011;18549;42.286;22.688;2023-05-23T01:40:50;19.55;;;14.73;;
32038;SDS011;18549;42.286;22.688;2023-05-23T01:43:16;12.27;;;9.20;;
32038;SDS011;18549;42.286;22.688;2023-05-23T01:45:45;14.27;;;6.85;;
32038;SDS011;18549;42.286;22.688;2023-05-23T01:48:13;8.38;;;4.53;;
32038;SDS011;18549;42.286;22.688;2023-05-23T01:50:41;5.87;;;3.72;;
32038;SDS011;18549;42.286;22.688;2023-05-23T01:53:09;6.20;;;3.00;;
32038;SDS011;18549;42.286;22.688;2023-05-23T01:55:37;3.20;;;2.85;;
32038;SDS011;18549;42.286;22.688;2023-05-23T01:58:06;8.27;;;2.83;;
32038;SDS011;18549;42.286;22.688;2023-05-23T02:00:34;6.45;;;2.78;;
32038;SDS011;18549;42.286;22.688;2023-05-23T02:03:02;6.20;;;3.40;;
32038;SDS011;18549;42.286;22.688;2023-05-23T02:05:30;4.47;;;2.55;;
32038;SDS011;18549;42.286;22.688;2023-05-23T02:07:57;4.80;;;2.72;;
32038;SDS011;18549;42.286;22.688;2023-05-23T02:10:24;6.43;;;2.83;;
32038;SDS011;18549;42.286;22.688;2023-05-23T02:12:51;5.72;;;2.53;;
32038;SDS011;18549;42.286;22.688;2023-05-23T02:15:20;5.45;;;2.37;;
32038;SDS011;18549;42.286;22.688;2023-05-23T02:17:47;3.60;;;2.53;;
32038;SDS011;18549;42.286;22.688;2023-05-23T02:20:17;4.95;;;2.83;;
32038;SDS011;18549;42.286;22.688;2023-05-23T02:22:44;5.40;;;2.67;;
32038;SDS011;18549;42.286;22.688;2023-05-23T02:25:11;4.50;;;2.83;;
32038;SDS011;18549;42.286;22.688;2023-05-23T02:27:38;6.90;;;2.58;;
32038;SDS011;18549;42.286;22.688;2023-05-23T02:30:05;5.12;;;3.30;;
32038;SDS011;18549;42.286;22.688;2023-05-23T02:32:33;3.55;;;2.67;;
32038;SDS011;18549;42.286;22.688;2023-05-23T02:35:01;3.15;;;2.33;;
32038;SDS011;18549;42.286;22.688;2023-05-23T02:37:29;4.05;;;2.75;;
32038;SDS011;18549;42.286;22.688;2023-05-23T02:39:56;8.82;;;2.58;;
32038;SDS011;18549;42.286;22.688;2023-05-23T02:42:23;4.03;;;2.53;;
32038;SDS011;18549;42.286;22.688;2023-05-23T02:44:49;4.32;;;2.92;;
32038;SDS011;18549;42.286;22.688;2023-05-23T02:47:16;9.52;;;3.33;;
32038;SDS011;18549;42.286;22.688;2023-05-23T02:49:43;8.25;;;3.90;;
32038;SDS011;18549;42.286;22.688;2023-05-23T02:52:09;15.63;;;5.15;;
32038;SDS011;18549;42.286;22.688;2023-05-23T02:54:40;9.40;;;5.53;;
32038;SDS011;18549;42.286;22.688;2023-05-23T02:57:07;8.65;;;5.60;;
32038;SDS011;18549;42.286;22.688;2023-05-23T02:59:34;6.60;;;4.12;;
32038;SDS011;18549;42.286;22.688;2023-05-23T03:02:01;12.77;;;6.00;;
32038;SDS011;18549;42.286;22.688;2023-05-23T03:04:27;12.90;;;5.32;;
32038;SDS011;18549;42.286;22.688;2023-05-23T03:06:54;6.93;;;3.92;;
32038;SDS011;18549;42.286;22.688;2023-05-23T03:09:23;8.93;;;4.85;;
32038;SDS011;18549;42.286;22.688;2023-05-23T03:11:51;7.28;;;4.12;;
32038;SDS011;18549;42.286;22.688;2023-05-23T03:14:19;6.00;;;4.25;;
32038;SDS011;18549;42.286;22.688;2023-05-23T03:16:48;6.85;;;3.70;;
32038;SDS011;18549;42.286;22.688;2023-05-23T03:19:14;6.78;;;4.20;;
32038;SDS011;18549;42.286;22.688;2023-05-23T03:21:41;6.43;;;3.50;;
32038;SDS011;18549;42.286;22.688;2023-05-23T03:24:08;4.65;;;3.05;;
32038;SDS011;18549;42.286;22.688;2023-05-23T03:26:34;15.57;;;3.65;;
32038;SDS011;18549;42.286;22.688;2023-05-23T03:29:03;7.90;;;3.25;;
32038;SDS011;18549;42.286;22.688;2023-05-23T03:31:31;6.35;;;3.70;;
32038;SDS011;18549;42.286;22.688;2023-05-23T03:33:58;6.60;;;4.07;;
32038;SDS011;18549;42.286;22.688;2023-05-23T03:36:24;16.12;;;4.95;;
32038;SDS011;18549;42.286;22.688;2023-05-23T03:38:52;12.20;;;6.30;;
32038;SDS011;18549;42.286;22.688;2023-05-23T03:41:19;12.00;;;4.97;;
32038;SDS011;18549;42.286;22.688;2023-05-23T03:43:45;9.48;;;5.45;;
32038;SDS011;18549;42.286;22.688;2023-05-23T03:46:14;14.50;;;5.47;;
32038;SDS011;18549;42.286;22.688;2023-05-23T03:48:40;8.40;;;5.65;;
32038;SDS011;18549;42.286;22.688;2023-05-23T03:51:07;13.05;;;6.32;;
32038;SDS011;18549;42.286;22.688;2023-05-23T03:53:34;11.02;;;6.75;;
32038;SDS011;18549;42.286;22.688;2023-05-23T03:56:00;10.05;;;5.40;;
32038;SDS011;18549;42.286;22.688;2023-05-23T03:58:27;10.45;;;6.62;;
32038;SDS011;18549;42.286;22.688;2023-05-23T04:00:54;23.35;;;6.97;;
32038;SDS011;18549;42.286;22.688;2023-05-23T04:03:23;14.38;;;6.55;;
32038;SDS011;18549;42.286;22.688;2023-05-23T04:05:50;12.32;;;6.15;;
32038;SDS011;18549;42.286;22.688;2023-05-23T04:08:16;13.43;;;5.60;;
32038;SDS011;18549;42.286;22.688;2023-05-23T04:10:46;8.43;;;5.57;;
32038;SDS011;18549;42.286;22.688;2023-05-23T04:13:12;9.20;;;4.65;;
32038;SDS011;18549;42.286;22.688;2023-05-23T04:15:40;7.12;;;5.05;;
32038;SDS011;18549;42.286;22.688;2023-05-23T04:18:07;10.30;;;5.30;;
32038;SDS011;18549;42.286;22.688;2023-05-23T04:20:35;12.27;;;4.75;;
32038;SDS011;18549;42.286;22.688;2023-05-23T04:23:02;13.50;;;5.20;;
32038;SDS011;18549;42.286;22.688;2023-05-23T04:25:29;8.32;;;4.97;;
32038;SDS011;18549;42.286;22.688;2023-05-23T04:27:55;14.87;;;5.95;;
32038;SDS011;18549;42.286;22.688;2023-05-23T04:30:22;8.70;;;5.32;;
32038;SDS011;18549;42.286;22.688;2023-05-23T04:32:49;12.18;;;5.60;;
32038;SDS011;18549;42.286;22.688;2023-05-23T04:35:16;20.60;;;8.20;;
32038;SDS011;18549;42.286;22.688;2023-05-23T04:37:44;14.38;;;7.43;;
32038;SDS011;18549;42.286;22.688;2023-05-23T04:40:11;12.10;;;8.05;;
32038;SDS011;18549;42.286;22.688;2023-05-23T04:42:38;12.20;;;6.15;;
32038;SDS011;18549;42.286;22.688;2023-05-23T04:45:06;11.82;;;6.95;;
32038;SDS011;18549;42.286;22.688;2023-05-23T04:47:34;10.65;;;6.00;;
32038;SDS011;18549;42.286;22.688;2023-05-23T04:50:01;8.10;;;5.85;;
32038;SDS011;18549;42.286;22.688;2023-05-23T04:52:28;12.70;;;5.32;;
32038;SDS011;18549;42.286;22.688;2023-05-23T04:54:58;9.00;;;4.83;;
32038;SDS011;18549;42.286;22.688;2023-05-23T04:57:25;9.00;;;4.00;;
32038;SDS011;18549;42.286;22.688;2023-05-23T04:59:52;8.55;;;4.37;;
32038;SDS011;18549;42.286;22.688;2023-05-23T05:02:21;8.43;;;4.28;;
32038;SDS011;18549;42.286;22.688;2023-05-23T05:04:47;8.05;;;3.90;;
32038;SDS011;18549;42.286;22.688;2023-05-23T05:07:15;15.82;;;3.80;;
32038;SDS011;18549;42.286;22.688;2023-05-23T05:09:43;6.95;;;3.17;;
32038;SDS011;18549;42.286;22.688;2023-05-23T05:12:11;3.75;;;3.10;;
32038;SDS011;18549;42.286;22.688;2023-05-23T05:14:37;4.95;;;3.40;;
32038;SDS011;18549;42.286;22.688;2023-05-23T05:17:06;8.75;;;3.78;;
32038;SDS011;18549;42.286;22.688;2023-05-23T05:19:32;9.57;;;4.20;;
32038;SDS011;18549;42.286;22.688;2023-05-23T05:21:59;6.03;;;4.05;;
32038;SDS011;18549;42.286;22.688;2023-05-23T05:24:26;9.93;;;4.57;;
32038;SDS011;18549;42.286;22.688;2023-05-23T05:26:53;11.15;;;4.30;;
32038;SDS011;18549;42.286;22.688;2023-05-23T05:29:21;13.13;;;4.45;;
32038;SDS011;18549;42.286;22.688;2023-05-23T05:31:48;6.65;;;3.83;;
32038;SDS011;18549;42.286;22.688;2023-05-23T05:34:16;7.00;;;4.60;;
32038;SDS011;18549;42.286;22.688;2023-05-23T05:36:42;6.35;;;4.20;;
32038;SDS011;18549;42.286;22.688;2023-05-23T05:39:12;8.52;;;4.55;;
32038;SDS011;18549;42.286;22.688;2023-05-23T05:41:39;9.35;;;4.35;;
32038;SDS011;18549;42.286;22.688;2023-05-23T05:44:05;12.90;;;4.78;;
32038;SDS011;18549;42.286;22.688;2023-05-23T05:46:34;7.40;;;4.87;;
32038;SDS011;18549;42.286;22.688;2023-05-23T05:49:00;6.28;;;4.65;;
32038;SDS011;18549;42.286;22.688;2023-05-23T05:51:27;10.40;;;4.72;;
32038;SDS011;18549;42.286;22.688;2023-05-23T05:53:56;7.93;;;4.87;;
32038;SDS011;18549;42.286;22.688;2023-05-23T05:56:24;9.82;;;4.68;;
32038;SDS011;18549;42.286;22.688;2023-05-23T05:58:52;10.23;;;4.07;;
32038;SDS011;18549;42.286;22.688;2023-05-23T06:01:18;13.65;;;3.67;;
32038;SDS011;18549;42.286;22.688;2023-05-23T06:03:47;10.18;;;4.30;;
32038;SDS011;18549;42.286;22.688;2023-05-23T06:06:13;3.97;;;3.40;;
32038;SDS011;18549;42.286;22.688;2023-05-23T06:08:40;5.85;;;3.37;;
32038;SDS011;18549;42.286;22.688;2023-05-23T06:11:07;8.27;;;3.85;;
32038;SDS011;18549;42.286;22.688;2023-05-23T06:13:34;8.85;;;3.47;;
32038;SDS011;18549;42.286;22.688;2023-05-23T06:16:01;8.25;;;4.65;;
32038;SDS011;18549;42.286;22.688;2023-05-23T06:18:27;6.53;;;4.25;;
32038;SDS011;18549;42.286;22.688;2023-05-23T06:21:06;6.90;;;4.10;;
32038;SDS011;18549;42.286;22.688;2023-05-23T06:23:34;6.57;;;3.85;;
32038;SDS011;18549;42.286;22.688;2023-05-23T06:26:01;5.72;;;3.75;;
32038;SDS011;18549;42.286;22.688;2023-05-23T06:28:28;4.35;;;3.65;;
32038;SDS011;18549;42.286;22.688;2023-05-23T06:30:54;7.80;;;3.80;;
32038;SDS011;18549;42.286;22.688;2023-05-23T06:33:21;10.65;;;3.95;;
32038;SDS011;18549;42.286;22.688;2023-05-23T06:35:48;6.53;;;3.92;;
32038;SDS011;18549;42.286;22.688;2023-05-23T06:38:16;7.72;;;3.65;;
32038;SDS011;18549;42.286;22.688;2023-05-23T06:40:42;5.20;;;3.40;;
32038;SDS011;18549;42.286;22.688;2023-05-23T06:43:09;7.85;;;3.70;;
32038;SDS011;18549;42.286;22.688;2023-05-23T06:45:36;7.78;;;5.10;;
32038;SDS011;18549;42.286;22.688;2023-05-23T06:48:03;6.60;;;3.58;;
32038;SDS011;18549;42.286;22.688;2023-05-23T06:50:31;5.70;;;3.28;;
32038;SDS011;18549;42.286;22.688;2023-05-23T06:53:00;4.72;;;3.25;;
32038;SDS011;18549;42.286;22.688;2023-05-23T06:55:31;9.88;;;3.37;;
32038;SDS011;18549;42.286;22.688;2023-05-23T06:57:59;4.70;;;3.70;;
32038;SDS011;18549;42.286;22.688;2023-05-23T07:00:28;5.93;;;3.30;;
32038;SDS011;18549;42.286;22.688;2023-05-23T07:02:55;5.22;;;2.92;;
32038;SDS011;18549;42.286;22.688;2023-05-23T07:05:25;9.10;;;3.22;;
32038;SDS011;18549;42.286;22.688;2023-05-23T07:07:52;6.32;;;3.12;;
32038;SDS011;18549;42.286;22.688;2023-05-23T07:10:19;8.63;;;3.08;;
32038;SDS011;18549;42.286;22.688;2023-05-23T07:12:47;7.68;;;3.42;;
32038;SDS011;18549;42.286;22.688;2023-05-23T07:15:14;5.55;;;2.95;;
32038;SDS011;18549;42.286;22.688;2023-05-23T07:17:40;5.97;;;2.83;;
32038;SDS011;18549;42.286;22.688;2023-05-23T07:20:08;5.32;;;2.78;;
32038;SDS011;18549;42.286;22.688;2023-05-23T07:22:35;4.50;;;3.00;;
32038;SDS011;18549;42.286;22.688;2023-05-23T07:25:02;4.00;;;2.67;;
32038;SDS011;18549;42.286;22.688;2023-05-23T07:27:29;6.45;;;2.92;;
32038;SDS011;18549;42.286;22.688;2023-05-23T07:29:57;12.88;;;3.25;;
32038;SDS011;18549;42.286;22.688;2023-05-23T07:32:25;7.57;;;3.60;;
32038;SDS011;18549;42.286;22.688;2023-05-23T07:34:52;11.25;;;2.65;;
32038;SDS011;18549;42.286;22.688;2023-05-23T07:37:18;3.67;;;2.70;;
32038;SDS011;18549;42.286;22.688;2023-05-23T07:39:46;11.20;;;3.05;;
32038;SDS011;18549;42.286;22.688;2023-05-23T07:42:15;5.87;;;3.33;;
32038;SDS011;18549;42.286;22.688;2023-05-23T07:44:42;3.30;;;2.60;;
32038;SDS011;18549;42.286;22.688;2023-05-23T07:47:10;8.98;;;2.75;;
32038;SDS011;18549;42.286;22.688;2023-05-23T07:49:37;6.53;;;2.90;;
32038;SDS011;18549;42.286;22.688;2023-05-23T07:52:04;5.87;;;2.45;;
32038;SDS011;18549;42.286;22.688;2023-05-23T07:54:31;5.30;;;3.00;;
32038;SDS011;18549;42.286;22.688;2023-05-23T07:56:58;5.72;;;3.10;;
32038;SDS011;18549;42.286;22.688;2023-05-23T07:59:25;8.23;;;3.37;;
32038;SDS011;18549;42.286;22.688;2023-05-23T08:01:51;5.25;;;3.30;;
32038;SDS011;18549;42.286;22.688;2023-05-23T08:04:19;5.90;;;2.70;;
32038;SDS011;18549;42.286;22.688;2023-05-23T08:06:46;6.05;;;2.75;;
32038;SDS011;18549;42.286;22.688;2023-05-23T08:09:13;4.78;;;2.70;;
32038;SDS011;18549;42.286;22.688;2023-05-23T08:11:40;4.45;;;2.97;;
32038;SDS011;18549;42.286;22.688;2023-05-23T08:14:06;4.35;;;2.97;;
32038;SDS011;18549;42.286;22.688;2023-05-23T08:16:33;6.05;;;3.05;;
32038;SDS011;18549;42.286;22.688;2023-05-23T08:19:00;7.50;;;2.92;;
32038;SDS011;18549;42.286;22.688;2023-05-23T08:21:28;5.35;;;3.15;;
32038;SDS011;18549;42.286;22.688;2023-05-23T08:23:56;7.28;;;3.03;;
32038;SDS011;18549;42.286;22.688;2023-05-23T08:26:23;6.40;;;3.45;;
32038;SDS011;18549;42.286;22.688;2023-05-23T08:28:50;4.47;;;2.60;;
32038;SDS011;18549;42.286;22.688;2023-05-23T08:31:17;5.15;;;3.35;;
32038;SDS011;18549;42.286;22.688;2023-05-23T08:33:44;5.03;;;2.92;;
32038;SDS011;18549;42.286;22.688;2023-05-23T08:36:11;6.15;;;3.17;;
32038;SDS011;18549;42.286;22.688;2023-05-23T08:38:39;10.88;;;3.37;;
32038;SDS011;18549;42.286;22.688;2023-05-23T08:41:05;6.10;;;3.12;;
32038;SDS011;18549;42.286;22.688;2023-05-23T08:43:38;7.85;;;3.47;;
32038;SDS011;18549;42.286;22.688;2023-05-23T08:46:05;4.18;;;2.97;;
32038;SDS011;18549;42.286;22.688;2023-05-23T08:48:31;3.85;;;2.83;;
32038;SDS011;18549;42.286;22.688;2023-05-23T08:51:01;5.37;;;3.33;;
32038;SDS011;18549;42.286;22.688;2023-05-23T08:53:29;5.65;;;3.17;;
32038;SDS011;18549;42.286;22.688;2023-05-23T08:55:58;8.75;;;2.72;;
32038;SDS011;18549;42.286;22.688;2023-05-23T08:58:26;3.95;;;3.10;;
32038;SDS011;18549;42.286;22.688;2023-05-23T09:00:54;4.87;;;2.75;;
32038;SDS011;18549;42.286;22.688;2023-05-23T09:03:21;9.82;;;3.03;;
32038;SDS011;18549;42.286;22.688;2023-05-23T09:05:48;6.37;;;2.63;;
32038;SDS011;18549;42.286;22.688;2023-05-23T09:08:15;5.85;;;2.92;;
32038;SDS011;18549;42.286;22.688;2023-05-23T09:10:43;4.40;;;2.90;;
32038;SDS011;18549;42.286;22.688;2023-05-23T09:13:11;5.72;;;2.90;;
32038;SDS011;18549;42.286;22.688;2023-05-23T09:15:54;6.68;;;3.25;;
32038;SDS011;18549;42.286;22.688;2023-05-23T09:18:23;4.32;;;2.58;;
32038;SDS011;18549;42.286;22.688;2023-05-23T09:20:50;9.50;;;2.87;;
32038;SDS011;18549;42.286;22.688;2023-05-23T09:23:17;11.05;;;3.25;;
32038;SDS011;18549;42.286;22.688;2023-05-23T09:25:45;3.95;;;3.20;;
32038;SDS011;18549;42.286;22.688;2023-05-23T09:28:15;8.60;;;3.08;;
32038;SDS011;18549;42.286;22.688;2023-05-23T09:30:43;10.15;;;2.97;;
32038;SDS011;18549;42.286;22.688;2023-05-23T09:33:10;3.97;;;3.08;;
32038;SDS011;18549;42.286;22.688;2023-05-23T09:35:42;6.60;;;3.25;;
32038;SDS011;18549;42.286;22.688;2023-05-23T09:38:10;6.70;;;3.05;;
32038;SDS011;18549;42.286;22.688;2023-05-23T09:40:43;5.87;;;2.87;;
32038;SDS011;18549;42.286;22.688;2023-05-23T09:43:10;4.68;;;3.45;;
32038;SDS011;18549;42.286;22.688;2023-05-23T09:45:38;6.18;;;3.37;;
32038;SDS011;18549;42.286;22.688;2023-05-23T09:48:10;13.10;;;3.87;;
32038;SDS011;18549;42.286;22.688;2023-05-23T09:50:38;10.63;;;3.78;;
32038;SDS011;18549;42.286;22.688;2023-05-23T09:53:05;9.43;;;4.20;;
32038;SDS011;18549;42.286;22.688;2023-05-23T09:55:32;4.12;;;3.20;;
32038;SDS011;18549;42.286;22.688;2023-05-23T09:57:59;5.40;;;2.95;;
32038;SDS011;18549;42.286;22.688;2023-05-23T10:00:26;8.80;;;3.47;;
32038;SDS011;18549;42.286;22.688;2023-05-23T10:02:57;13.15;;;3.30;;
32038;SDS011;18549;42.286;22.688;2023-05-23T10:05:37;4.75;;;3.67;;
32038;SDS011;18549;42.286;22.688;2023-05-23T10:08:07;6.60;;;3.30;;
32038;SDS011;18549;42.286;22.688;2023-05-23T10:10:49;5.60;;;3.80;;
32038;SDS011;18549;42.286;22.688;2023-05-23T10:13:41;5.30;;;3.12;;
32038;SDS011;18549;42.286;22.688;2023-05-23T10:16:11;8.32;;;3.87;;
32038;SDS011;18549;42.286;22.688;2023-05-23T10:18:44;4.60;;;2.60;;
32038;SDS011;18549;42.286;22.688;2023-05-23T10:21:14;6.03;;;2.75;;
32038;SDS011;18549;42.286;22.688;2023-05-23T10:23:44;5.43;;;3.20;;
32038;SDS011;18549;42.286;22.688;2023-05-23T10:26:12;5.97;;;3.08;;
32038;SDS011;18549;42.286;22.688;2023-05-23T10:28:40;5.78;;;3.47;;
32038;SDS011;18549;42.286;22.688;2023-05-23T10:31:07;6.95;;;3.40;;
32038;SDS011;18549;42.286;22.688;2023-05-23T10:33:37;6.78;;;2.65;;
32038;SDS011;18549;42.286;22.688;2023-05-23T10:36:13;5.00;;;2.80;;
32038;SDS011;18549;42.286;22.688;2023-05-23T10:38:48;5.20;;;2.85;;
32038;SDS011;18549;42.286;22.688;2023-05-23T10:41:21;7.93;;;2.62;;
32038;SDS011;18549;42.286;22.688;2023-05-23T10:43:54;7.43;;;2.97;;
32038;SDS011;18549;42.286;22.688;2023-05-23T10:46:42;14.30;;;3.75;;
32038;SDS011;18549;42.286;22.688;2023-05-23T10:49:16;7.82;;;3.03;;
32038;SDS011;18549;42.286;22.688;2023-05-23T10:51:46;4.87;;;2.85;;
32038;SDS011;18549;42.286;22.688;2023-05-23T10:54:15;6.18;;;2.83;;
32038;SDS011;18549;42.286;22.688;2023-05-23T10:56:43;5.10;;;2.97;;
32038;SDS011;18549;42.286;22.688;2023-05-23T10:59:19;4.75;;;2.80;;
32038;SDS011;18549;42.286;22.688;2023-05-23T11:01:49;4.97;;;2.50;;
32038;SDS011;18549;42.286;22.688;2023-05-23T11:04:23;3.72;;;2.10;;
32038;SDS011;18549;42.286;22.688;2023-05-23T11:06:53;4.80;;;2.60;;
32038;SDS011;18549;42.286;22.688;2023-05-23T11:09:21;5.95;;;2.58;;
32038;SDS011;18549;42.286;22.688;2023-05-23T11:11:51;3.67;;;2.67;;
32038;SDS011;18549;42.286;22.688;2023-05-23T11:17:28;6.03;;;3.47;;
32038;SDS011;18549;42.286;22.688;2023-05-23T11:19:57;9.85;;;3.30;;
32038;SDS011;18549;42.286;22.688;2023-05-23T11:22:29;7.55;;;2.90;;
32038;SDS011;18549;42.286;22.688;2023-05-23T11:24:57;3.92;;;2.58;;
32038;SDS011;18549;42.286;22.688;2023-05-23T11:27:28;7.35;;;3.03;;
32038;SDS011;18549;42.286;22.688;2023-05-23T11:29:59;6.35;;;3.03;;
32038;SDS011;18549;42.286;22.688;2023-05-23T11:32:28;8.48;;;2.85;;
32038;SDS011;18549;42.286;22.688;2023-05-23T11:34:57;6.30;;;2.83;;
32038;SDS011;18549;42.286;22.688;2023-05-23T11:37:25;6.22;;;3.12;;
32038;SDS011;18549;42.286;22.688;2023-05-23T11:39:54;3.60;;;2.45;;
32038;SDS011;18549;42.286;22.688;2023-05-23T11:42:21;10.25;;;2.75;;
32038;SDS011;18549;42.286;22.688;2023-05-23T11:44:50;7.50;;;3.13;;
32038;SDS011;18549;42.286;22.688;2023-05-23T11:47:17;5.25;;;2.87;;
32038;SDS011;18549;42.286;22.688;2023-05-23T11:49:45;7.30;;;2.78;;
32038;SDS011;18549;42.286;22.688;2023-05-23T11:52:13;6.25;;;2.90;;
32038;SDS011;18549;42.286;22.688;2023-05-23T11:54:40;4.47;;;2.75;;
32038;SDS011;18549;42.286;22.688;2023-05-23T11:57:09;4.93;;;2.70;;
32038;SDS011;18549;42.286;22.688;2023-05-23T11:59:38;6.97;;;2.65;;
32038;SDS011;18549;42.286;22.688;2023-05-23T12:02:05;6.70;;;2.83;;
32038;SDS011;18549;42.286;22.688;2023-05-23T12:04:33;6.85;;;2.65;;
32038;SDS011;18549;42.286;22.688;2023-05-23T12:07:03;3.87;;;2.60;;
32038;SDS011;18549;42.286;22.688;2023-05-23T12:09:30;5.55;;;2.78;;
32038;SDS011;18549;42.286;22.688;2023-05-23T12:11:56;7.00;;;2.72;;
32038;SDS011;18549;42.286;22.688;2023-05-23T12:14:27;7.72;;;3.00;;
32038;SDS011;18549;42.286;22.688;2023-05-23T12:16:54;5.07;;;2.85;;
32038;SDS011;18549;42.286;22.688;2023-05-23T12:19:21;6.87;;;2.47;;
32038;SDS011;18549;42.286;22.688;2023-05-23T12:21:48;6.55;;;2.50;;
32038;SDS011;18549;42.286;22.688;2023-05-23T12:24:15;3.40;;;2.58;;
32038;SDS011;18549;42.286;22.688;2023-05-23T12:26:46;7.97;;;2.83;;
32038;SDS011;18549;42.286;22.688;2023-05-23T12:29:20;7.97;;;3.05;;
32038;SDS011;18549;42.286;22.688;2023-05-23T12:31:49;4.82;;;3.00;;
32038;SDS011;18549;42.286;22.688;2023-05-23T12:34:16;5.85;;;2.85;;
32038;SDS011;18549;42.286;22.688;2023-05-23T12:36:44;6.22;;;3.05;;
32038;SDS011;18549;42.286;22.688;2023-05-23T12:39:13;4.95;;;2.67;;
32038;SDS011;18549;42.286;22.688;2023-05-23T12:41:41;4.22;;;2.62;;
32038;SDS011;18549;42.286;22.688;2023-05-23T12:44:13;4.05;;;2.85;;
32038;SDS011;18549;42.286;22.688;2023-05-23T12:46:40;4.72;;;3.20;;
32038;SDS011;18549;42.286;22.688;2023-05-23T12:49:09;6.40;;;2.53;;
32038;SDS011;18549;42.286;22.688;2023-05-23T12:51:36;3.72;;;2.25;;
32038;SDS011;18549;42.286;22.688;2023-05-23T12:54:02;7.12;;;2.72;;
32038;SDS011;18549;42.286;22.688;2023-05-23T12:56:29;6.68;;;2.92;;
32038;SDS011;18549;42.286;22.688;2023-05-23T12:58:56;9.30;;;2.90;;
32038;SDS011;18549;42.286;22.688;2023-05-23T13:01:23;5.97;;;2.80;;
32038;SDS011;18549;42.286;22.688;2023-05-23T13:03:49;3.55;;;2.40;;
32038;SDS011;18549;42.286;22.688;2023-05-23T13:06:17;5.65;;;3.00;;
32038;SDS011;18549;42.286;22.688;2023-05-23T13:08:44;4.12;;;2.78;;
32038;SDS011;18549;42.286;22.688;2023-05-23T13:11:12;4.87;;;2.65;;
32038;SDS011;18549;42.286;22.688;2023-05-23T13:13:39;9.50;;;3.12;;
32038;SDS011;18549;42.286;22.688;2023-05-23T13:16:06;4.50;;;2.70;;
32038;SDS011;18549;42.286;22.688;2023-05-23T13:18:33;4.32;;;2.70;;
32038;SDS011;18549;42.286;22.688;2023-05-23T13:21:00;9.18;;;2.83;;
32038;SDS011;18549;42.286;22.688;2023-05-23T13:23:28;6.68;;;2.45;;
32038;SDS011;18549;42.286;22.688;2023-05-23T13:25:55;8.43;;;2.58;;
32038;SDS011;18549;42.286;22.688;2023-05-23T13:28:22;8.05;;;3.80;;
32038;SDS011;18549;42.286;22.688;2023-05-23T13:30:49;3.70;;;2.35;;
32038;SDS011;18549;42.286;22.688;2023-05-23T13:33:16;6.57;;;2.65;;
32038;SDS011;18549;42.286;22.688;2023-05-23T13:35:43;6.68;;;2.80;;
32038;SDS011;18549;42.286;22.688;2023-05-23T13:38:13;8.05;;;2.65;;
32038;SDS011;18549;42.286;22.688;2023-05-23T13:40:41;9.68;;;3.65;;
32038;SDS011;18549;42.286;22.688;2023-05-23T13:43:08;6.20;;;3.05;;
32038;SDS011;18549;42.286;22.688;2023-05-23T13:45:35;3.92;;;2.78;;
32038;SDS011;18549;42.286;22.688;2023-05-23T13:48:01;5.07;;;2.60;;
32038;SDS011;18549;42.286;22.688;2023-05-23T13:50:28;6.30;;;2.42;;
32038;SDS011;18549;42.286;22.688;2023-05-23T13:52:55;6.82;;;3.72;;
32038;SDS011;18549;42.286;22.688;2023-05-23T13:55:22;5.47;;;2.65;;
32038;SDS011;18549;42.286;22.688;2023-05-23T13:57:50;6.40;;;3.37;;
32038;SDS011;18549;42.286;22.688;2023-05-23T14:00:17;5.93;;;2.85;;
32038;SDS011;18549;42.286;22.688;2023-05-23T14:02:44;9.10;;;3.50;;
32038;SDS011;18549;42.286;22.688;2023-05-23T14:05:10;12.73;;;2.97;;
32038;SDS011;18549;42.286;22.688;2023-05-23T14:07:37;8.80;;;3.47;;
32038;SDS011;18549;42.286;22.688;2023-05-23T14:10:05;8.27;;;3.25;;
32038;SDS011;18549;42.286;22.688;2023-05-23T14:12:33;8.52;;;2.97;;
32038;SDS011;18549;42.286;22.688;2023-05-23T14:15:01;7.18;;;3.05;;
32038;SDS011;18549;42.286;22.688;2023-05-23T14:17:28;4.93;;;3.05;;
32038;SDS011;18549;42.286;22.688;2023-05-23T14:19:54;13.93;;;3.43;;
32038;SDS011;18549;42.286;22.688;2023-05-23T14:22:21;4.05;;;2.62;;
32038;SDS011;18549;42.286;22.688;2023-05-23T14:24:48;7.97;;;3.03;;
32038;SDS011;18549;42.286;22.688;2023-05-23T14:27:14;7.12;;;2.95;;
32038;SDS011;18549;42.286;22.688;2023-05-23T14:29:42;11.68;;;3.10;;
32038;SDS011;18549;42.286;22.688;2023-05-23T14:32:12;8.88;;;2.90;;
32038;SDS011;18549;42.286;22.688;2023-05-23T14:34:38;8.60;;;2.78;;
32038;SDS011;18549;42.286;22.688;2023-05-23T14:37:05;3.20;;;2.37;;
32038;SDS011;18549;42.286;22.688;2023-05-23T14:39:32;4.28;;;2.67;;
32038;SDS011;18549;42.286;22.688;2023-05-23T14:41:59;5.15;;;2.62;;